Últimos sismos

MagnitudMag. Fecha y hora Epicentro localización: latitud, longitud loc.: lat., long. ProfundidadProf.
4.3 2018-11-17    15:15:01 20 km al OESTE de RIO GRANDE, OAX: 16.01°, -97.62° 16 km
3.8 2018-11-17    11:36:11 99 km al SURESTE de SALINA CRUZ, OAX: 15.40°, -94.74° 19 km
4.1 2018-11-17    11:28:43 63 km al NORESTE de MATIAS ROMERO, OAX: 17.30°, -94.65° 134 km
3.7 2018-11-17    11:16:30 79 km al SUROESTE de COALCOMAN, MICH: 18.11°, -103.43° 5 km
3.9 2018-11-17    10:50:17 107 km al SUROESTE de PINOTEPA NACIONAL, OAX: 15.59°, -98.68° 16 km
3.6 2018-11-17    10:48:25 6 km al SUROESTE de PINOTEPA NACIONAL, OAX: 16.30°, -98.09° 12 km
4.2 2018-11-17    09:31:06 68 km al SUROESTE de COYUCA DE BENITEZ, GRO: 16.58°, -100.54° 12 km
3.7 2018-11-17    08:25:05 49 km al NOROESTE de CINTALAPA, CHIS: 16.90°, -94.13° 154 km
3.6 2018-11-17    07:33:24 29 km al SUR de SALINA CRUZ, OAX: 15.92°, -95.20° 13 km
3.6 2018-11-17    06:59:53 13 km al NORESTE de S BLAS ATEMPA, OAX: 16.41°, -95.15° 65 km
3.6 2018-11-17    06:52:07 4 km al SUR de ATOYAC DE ALVAREZ, GRO: 17.17°, -100.44° 41 km
3.9 2018-11-17    06:03:39 52 km al NOROESTE de TEHUANTEPEC, OAX: 16.46°, -95.71° 82 km
2.9 2018-11-17    05:38:45 55 km al NORTE de RIO GRANDE, OAX: 16.50°, -97.50° 7 km
3.5 2018-11-17    05:24:24 32 km al SURESTE de CD ALTAMIRANO, GRO: 18.10°, -100.55° 57 km
3.4 2018-11-17    04:57:21 95 km al SUROESTE de OMETEPEC, GRO: 16.02°, -98.96° 10 km
3.6 2018-11-17    04:47:44 8 km al NORTE de CD IXTEPEC, OAX: 16.64°, -95.10° 88 km
3.3 2018-11-17    04:36:40 34 km al SURESTE de PETATLAN, GRO: 17.26°, -101.15° 40 km
3.2 2018-11-17    04:34:21 20 km al OESTE de PUERTO ESCONDIDO, OAX: 15.83°, -97.25° 19 km
3.2 2018-11-17    04:17:45 10 km al SUR de PINOTEPA NACIONAL, OAX: 16.25°, -98.08° 13 km
3.6 2018-11-17    04:06:36 70 km al SUR de TECPAN, GRO: 16.59°, -100.61° 10 km
3.8 2018-11-17    04:02:43 78 km al SUR de TECPAN, GRO: 16.51°, -100.66° 17 km
3.8 2018-11-17    03:47:48 69 km al SUR de TECPAN, GRO: 16.60°, -100.60° 10 km
3.7 2018-11-17    03:33:14 63 km al SUR de SALINA CRUZ, OAX: 15.61°, -95.14° 25 km
3.7 2018-11-17    03:07:45 67 km al SUROESTE de PIJIJIAPAN, CHIS: 15.39°, -93.76° 61 km
3.7 2018-11-17    02:48:30 14 km al NORESTE de S BLAS ATEMPA, OAX: 16.44°, -95.16° 55 km
3.7 2018-11-17    02:44:42 21 km al NORESTE de CD IXTEPEC, OAX: 16.67°, -94.93° 12 km
3.3 2018-11-17    02:42:03 10 km al SUR de PINOTEPA NACIONAL, OAX: 16.25°, -98.06° 9 km
4.0 2018-11-17    02:19:48 17 km al SUROESTE de SALINA CRUZ, OAX: 16.04°, -95.26° 13 km
3.2 2018-11-17    02:17:48 10 km al SURESTE de PINOTEPA NACIONAL, OAX: 16.26°, -98.02° 3 km
3.8 2018-11-17    02:01:09 93 km al SUROESTE de LA MIRA, MICH: 17.72°, -103.14° 16 km
3.0 2018-11-17    01:45:22 3 km al NOROESTE de PINOTEPA NACIONAL, OAX: 16.36°, -98.06° 20 km
3.7 2018-11-17    01:34:33 72 km al NORESTE de MATIAS ROMERO, OAX: 17.19°, -94.45° 146 km
3.5 2018-11-17    01:17:55 40 km al ESTE de SAN MARCOS, GRO: 16.85°, -99.02° 37 km
4.2 2018-11-17    00:49:21 38 km al SUROESTE de CD HIDALGO, CHIS: 14.44°, -92.40° 62 km
4.0 2018-11-17    00:35:28 8 km al SUROESTE de PINOTEPA NACIONAL, OAX: 16.28°, -98.10° 12 km
3.7 2018-11-17    00:25:10 30 km al NORTE de MATIAS ROMERO, OAX: 17.14°, -95.01° 123 km
3.4 2018-11-17    00:17:41 11 km al SUROESTE de PINOTEPA NACIONAL, OAX: 16.25°, -98.10° 11 km
3.9 2018-11-17    00:14:35 95 km al SUROESTE de PUERTO ESCONDIDO, OAX: 15.09°, -97.44° 8 km
3.6 2018-11-17    00:08:40 61 km al OESTE de LA MIRA, MICH: 18.15°, -102.90° 6 km
3.6 2018-11-16    23:49:30 50 km al SUR de COALCOMAN, MICH: 18.34°, -103.24° 59 km
3.8 2018-11-16    23:07:51 14 km al NORTE de MIAHUATLAN, OAX: 16.45°, -96.56° 10 km
3.6 2018-11-16    23:06:22 45 km al SUR de SALINA CRUZ, OAX: 15.78°, -95.19° 15 km
3.4 2018-11-16    23:01:16 61 km al SUR de COALCOMAN, MICH: 18.22°, -103.14° 7 km
3.5 2018-11-16    22:53:44 35 km al NOROESTE de COQUIMATLAN, COL: 19.36°, -104.10° 10 km
3.4 2018-11-16    22:47:07 18 km al NOROESTE de RIO GRANDE, OAX: 16.08°, -97.59° 15 km
3.1 2018-11-16    22:35:41 18 km al SURESTE de PINOTEPA NACIONAL, OAX: 16.24°, -97.92° 8 km
3.7 2018-11-16    22:32:06 76 km al SUROESTE de COALCOMAN, MICH: 18.14°, -103.41° 7 km
3.4 2018-11-16    22:06:46 12 km al NOROESTE de RIO GRANDE, OAX: 16.05°, -97.54° 19 km
3.3 2018-11-16    20:50:23 19 km al NOROESTE de RIO GRANDE, OAX: 16.08°, -97.59° 15 km
3.7 2018-11-16    20:49:44 93 km al SURESTE de SALINA CRUZ, OAX: 15.47°, -94.74° 38 km
3.7 2018-11-16    20:40:41 22 km al SUROESTE de SALINA CRUZ, OAX: 16.01°, -95.28° 44 km
3.0 2018-11-16    20:26:28 20 km al OESTE de ATLIXCO, PUE: 18.94°, -98.62° 5 km
3.8 2018-11-16    20:24:12 38 km al NOROESTE de CINTALAPA, CHIS: 16.78°, -94.06° 132 km
3.9 2018-11-16    20:24:01 83 km al SURESTE de SALINA CRUZ, OAX: 15.48°, -94.92° 34 km
3.5 2018-11-16    20:03:11 16 km al OESTE de PINOTEPA NACIONAL, OAX: 16.32°, -98.20° 23 km
3.5 2018-11-16    19:53:11 57 km al SUROESTE de COYUCA DE BENITEZ, GRO: 16.60°, -100.42° 3 km
3.4 2018-11-16    19:25:20 50 km al SUR de SAYULA DE ALEMAN, VER: 17.43°, -94.95° 120 km
3.7 2018-11-16    19:14:53 89 km al SURESTE de SALINA CRUZ, OAX: 15.46°, -94.83° 22 km
3.1 2018-11-16    19:01:33 13 km al SURESTE de PINOTEPA NACIONAL, OAX: 16.29°, -97.94° 13 km
3.4 2018-11-16    18:22:26 14 km al NOROESTE de PINOTEPA NACIONAL, OAX: 16.43°, -98.15° 22 km
3.7 2018-11-16    18:06:14 125 km al SUROESTE de PUERTO VALLARTA, JAL: 19.60°, -105.77° 16 km
3.9 2018-11-16    17:35:41 114 km al SUROESTE de PUERTO VALLARTA, JAL: 19.64°, -105.58° 17 km
4.2 2018-11-16    16:50:40 116 km al SURESTE de SALINA CRUZ, OAX: 15.26°, -94.67° 21 km
3.2 2018-11-16    16:49:31 21 km al SUR de SANTA ISABEL, BC: 32.44°, -115.53° 18 km
3.3 2018-11-16    16:22:01 33 km al NORESTE de RIO GRANDE, OAX: 16.20°, -97.19° 37 km
3.3 2018-11-16    16:02:33 19 km al SUR de PINOTEPA NACIONAL, OAX: 16.17°, -98.07° 11 km
3.9 2018-11-16    15:58:34 207 km al SUROESTE de CIHUATLAN, JAL: 17.87°, -105.90° 21 km
3.8 2018-11-16    14:33:15 16 km al SUR de S SEBASTIAN ZINACATEPEC, PUE: 18.18°, -97.23° 62 km
3.5 2018-11-16    14:01:02 7 km al SUROESTE de PINOTEPA NACIONAL, OAX: 16.32°, -98.11° 5 km
3.5 2018-11-16    13:13:00 35 km al NORTE de PUERTO ESCONDIDO, OAX: 16.18°, -97.06° 7 km
3.7 2018-11-16    12:12:17 95 km al SURESTE de SALINA CRUZ, OAX: 15.40°, -94.84° 50 km
4.0 2018-11-16    11:27:29 20 km al SURESTE de RIO GRANDE, OAX: 15.85°, -97.35° 3 km
3.4 2018-11-16    11:23:34 20 km al NOROESTE de RIO GRANDE, OAX: 16.10°, -97.59° 32 km
4.0 2018-11-16    10:59:31 125 km al SUROESTE de TONALA, CHIS: 15.14°, -94.40° 16 km
3.5 2018-11-16    10:31:06 7 km al SURESTE de MEXICALI, BC: 32.60°, -115.45° 20 km
4.2 2018-11-16    09:56:33 30 km al ESTE de CD LAZARO CARDENAS, MICH: 17.97°, -101.93° 42 km
3.7 2018-11-16    09:42:33 19 km al ESTE de MATIAS ROMERO, OAX: 16.87°, -94.86° 3 km
2.5 2018-11-16    09:30:37 11 km al SUR de MEXICALI, BC: 32.57°, -115.45° 19 km
2.5 2018-11-16    09:28:43 8 km al SUR de MEXICALI, BC: 32.60°, -115.46° 21 km
3.5 2018-11-16    08:39:11 14 km al SUR de S PEDRO POCHUTLA, OAX: 15.62°, -96.47° 52 km
3.8 2018-11-16    08:07:01 22 km al SURESTE de JUCHITAN DE ZARAGOZA, OAX: 16.27°, -94.89° 47 km
3.7 2018-11-16    07:49:29 9 km al OESTE de JUCHITAN DE ZARAGOZA, OAX: 16.44°, -95.11° 77 km
3.5 2018-11-16    07:08:39 40 km al NORESTE de CRUCECITA, OAX: 15.87°, -95.77° 17 km
3.8 2018-11-16    06:57:15 43 km al SUROESTE de CHILPANCINGO, GRO: 17.28°, -99.78° 56 km
3.8 2018-11-16    06:54:10 44 km al SUROESTE de ISLA, VER: 17.66°, -95.68° 101 km
3.5 2018-11-16    06:44:18 43 km al SUROESTE de SALINA CRUZ, OAX: 15.88°, -95.44° 30 km
3.7 2018-11-16    06:41:34 46 km al SUROESTE de MAPASTEPEC, CHIS: 15.25°, -93.27° 83 km
3.6 2018-11-16    05:38:57 32 km al SUROESTE de GPE VICTORIA(KM.43), BC: 32.21°, -115.43° 20 km
3.3 2018-11-16    05:09:11 10 km al SUR de PINOTEPA NACIONAL, OAX: 16.25°, -98.07° 7 km
3.3 2018-11-16    05:05:27 14 km al SUROESTE de PINOTEPA NACIONAL, OAX: 16.24°, -98.12° 11 km
3.9 2018-11-16    04:26:07 29 km al ESTE de MATIAS ROMERO, OAX: 16.89°, -94.77° 114 km
3.7 2018-11-16    04:03:44 28 km al ESTE de PETATLAN, GRO: 17.52°, -101.01° 39 km
3.9 2018-11-16    02:09:06 115 km al SURESTE de SALINA CRUZ, OAX: 15.18°, -94.90° 16 km
3.3 2018-11-16    01:46:12 9 km al SUR de PINOTEPA NACIONAL, OAX: 16.26°, -98.06° 13 km
3.8 2018-11-16    01:44:04 68 km al SURESTE de SALINA CRUZ, OAX: 15.65°, -94.87° 16 km
4.1 2018-11-16    01:30:15 18 km al SURESTE de UNION HIDALGO, OAX: 16.43°, -94.67° 95 km
3.7 2018-11-16    00:36:28 25 km al NOROESTE de MATIAS ROMERO, OAX: 16.99°, -95.24° 60 km
3.8 2018-11-16    00:23:07 24 km al NORTE de UNION HIDALGO, OAX: 16.69°, -94.83° 56 km

Sismo de magnitud menor de 4.0

Sismo de magnitud entre 4.0 y 5.9

Sismo de magnitud igual o mayor de 6.0

Si deseas más información,
consulta nuestro

Catálogo de sismos